Página principal
METAR-TAF:

METAR-TAF

Aeroportos :

Aeroporto Internacional do Bahrain

Bahrein, Bahrein

latitude: 26-16N, longitude: 050-39E, altura: 2 m

Observação actual do tempo

O boletim foi feito há 35 minutos, às 02:30 UTC
Vento 7 kt de oeste
Temperatura 33°C
Humidade 41%
Pressão 1002 hPa
Visibilidade: 3000 m
Céu limpo
poeira extensa

METAR: OBBI 240230Z 28007KT 3000 DU SKC 33/18 Q1002 BECMG 5000

Hora: 06:05 (03:05 UTC)

Previsão

O boletim foi feito há 2 horas e 36 minutos, às 00:29 UTC
Previsão válida de 24 às 00 UTC a 25 às 06 UTC
Vento 15 kt de nor-noroeste
Visibilidade: 8000 m
Temporariamente
de 24 às 00 UTC a 24 às 05 UTC
Visibilidade: 3000 m
poeira extensa
Tornando-se
de 24 às 14 UTC a 24 às 16 UTC
Vento 5 kt de oes-noroeste

TAF: OBBI 240029Z 2400/2506 34015KT 8000 NSC TEMPO 2400/2405 3000 DU BECMG 2414/2416 29005KT

Observações e previsões do tempo de mais de 4000 aeroportos (mensagens METAR e TAF).

As estações disponíveis são os pontos amarelos e vermelhos sobre o mapa.

Mova o rato sobre o mapa para ver o nome da estação.

Depois clique no ponto para visualizar as observações e previsões meteorológicas.

Para alterar o mapa : clique nos botões verdes com uma cruz preta para aumentar o zoom; no botão verde com uma pitada de zoom; ou nas setas verdes para mapas adjacentes.


METAR-TAF: